Time;durP1;ratioP1;P1;durP2;ratioP2;P2;SDS_P1;SDS_P2;PMS_P1;PMS_P2;Temp;Humidity;BMP_temperature;BMP_pressure;BME280_temperature;BME280_humidity;BME280_pressure;Samples;Min_cycle;Max_cycle;Signal;HPM_P1;HPM_P2
2023/01/03 00:00:10;;;;;;;54.28;29.95;;;;;;;4.94;nan;101541.66;5035685;28;20047;-67
2023/01/03 00:02:36;;;;;;;55.65;29.70;;;;;;;4.92;nan;101541.00;5035559;28;20013;-68
2023/01/03 00:05:02;;;;;;;50.08;27.83;;;;;;;4.86;nan;101545.03;5035096;28;20661;-67
2023/01/03 00:07:33;;;;;;;51.25;29.17;;;;;;;4.84;nan;101541.78;5033715;28;20051;-67
2023/01/03 00:10:08;;;;;;;49.42;26.98;;;;;;;4.86;nan;101545.88;5045073;28;20032;-70
2023/01/03 00:12:34;;;;;;;49.40;26.55;;;;;;;4.75;nan;101542.75;5036314;28;20033;-66
2023/01/03 00:14:59;;;;;;;45.63;25.30;;;;;;;4.78;nan;101548.44;5037953;28;20017;-67
2023/01/03 00:17:25;;;;;;;46.92;24.27;;;;;;;4.71;nan;101546.63;5036826;28;20041;-67
2023/01/03 00:19:51;;;;;;;41.30;23.20;;;;;;;4.74;nan;101549.75;5038947;28;20055;-67
2023/01/03 00:22:17;;;;;;;48.72;23.60;;;;;;;4.63;nan;101542.22;5042814;28;20422;-70
2023/01/03 00:24:44;;;;;;;42.92;23.88;;;;;;;4.75;nan;101553.19;5040534;28;20024;-67
2023/01/03 00:27:10;;;;;;;43.30;24.52;;;;;;;4.74;nan;101556.75;5039612;28;20057;-69
2023/01/03 00:29:36;;;;;;;43.22;22.52;;;;;;;4.74;nan;101554.13;5039032;28;20029;-69
2023/01/03 00:32:03;;;;;;;44.08;22.63;;;;;;;4.52;nan;101521.63;5035885;28;20105;-69
2023/01/03 00:34:28;;;;;;;39.20;22.10;;;;;;;4.61;nan;101542.34;5033961;28;20036;-69
2023/01/03 00:36:54;;;;;;;39.90;21.98;;;;;;;4.60;nan;101545.94;5033254;28;20025;-68
2023/01/03 00:39:20;;;;;;;36.35;21.10;;;;;;;4.50;nan;101534.78;5037567;28;20395;-69
2023/01/03 00:41:45;;;;;;;39.20;21.77;;;;;;;4.64;nan;101562.09;5033966;28;20025;-68
2023/01/03 00:44:11;;;;;;;37.60;22.02;;;;;;;4.63;nan;101565.69;5037297;28;20106;-67
2023/01/03 00:46:36;;;;;;;35.78;21.00;;;;;;;4.56;nan;101569.91;5041785;28;20076;-68
2023/01/03 00:49:03;;;;;;;37.50;21.63;;;;;;;4.56;nan;101581.13;5036367;28;20029;-68
2023/01/03 00:51:31;;;;;;;42.40;21.23;;;;;;;4.46;nan;101577.84;5037459;28;20029;-68
2023/01/03 00:53:59;;;;;;;40.78;21.17;;;;;;;4.41;nan;101574.88;5031596;28;20535;-69
2023/01/03 00:56:28;;;;;;;36.00;20.67;;;;;;;4.42;nan;101579.13;5043424;28;20025;-68
2023/01/03 00:58:54;;;;;;;36.72;21.25;;;;;;;4.40;nan;101584.47;5037691;28;20021;-68
2023/01/03 01:01:27;;;;;;;36.60;20.52;;;;;;;4.41;nan;101582.69;5034978;28;20043;-68
2023/01/03 01:03:58;;;;;;;37.33;19.55;;;;;;;4.40;nan;101588.88;5037528;28;20487;-68
2023/01/03 01:06:39;;;;;;;33.50;19.25;;;;;;;4.31;nan;101580.22;5036964;28;20035;-67
2023/01/03 01:09:07;;;;;;;36.60;20.77;;;;;;;4.30;nan;101604.63;5037957;28;20027;-68
2023/01/03 01:11:33;;;;;;;36.42;20.05;;;;;;;4.15;nan;101572.28;5040884;28;20025;-68
2023/01/03 01:13:58;;;;;;;34.30;20.20;;;;;;;4.22;nan;101588.94;5037804;28;20033;-68
2023/01/03 01:16:27;;;;;;;36.95;19.95;;;;;;;4.14;nan;101571.47;5035904;28;20102;-68
2023/01/03 01:18:53;;;;;;;36.70;21.00;;;;;;;4.20;nan;101588.28;5037213;28;20025;-68
2023/01/03 01:21:24;;;;;;;38.53;20.52;;;;;;;4.07;nan;101570.44;5038556;28;20060;-68
2023/01/03 01:23:50;;;;;;;34.50;20.05;;;;;;;4.01;nan;101574.47;5034940;28;20558;-68
2023/01/03 01:26:17;;;;;;;35.58;19.90;;;;;;;3.96;nan;101566.28;5038080;28;20044;-68
2023/01/03 01:28:43;;;;;;;34.45;19.90;;;;;;;3.95;nan;101574.25;5037469;28;20075;-68
2023/01/03 01:31:12;;;;;;;34.40;19.27;;;;;;;3.92;nan;101570.16;5035071;28;20021;-68
2023/01/03 01:33:37;;;;;;;34.58;19.58;;;;;;;3.86;nan;101562.97;5038864;28;20047;-70
2023/01/03 01:36:14;;;;;;;33.47;19.75;;;;;;;3.96;nan;101575.91;5030245;28;20033;-70
2023/01/03 01:38:39;;;;;;;36.15;19.20;;;;;;;3.79;nan;101554.13;5036116;28;20048;-70
2023/01/03 01:41:05;;;;;;;33.92;19.25;;;;;;;3.81;nan;101560.81;5035638;28;20057;-70
2023/01/03 01:46:30;;;;;;;35.83;19.20;;;;;;;3.82;nan;101556.41;5037994;28;20041;-70
2023/01/03 01:49:01;;;;;;;34.78;20.08;;;;;;;3.85;nan;101563.94;5032750;28;20060;-69
2023/01/03 01:51:32;;;;;;;36.78;20.27;;;;;;;3.83;nan;101561.50;5031167;28;20067;-70
2023/01/03 01:53:59;;;;;;;37.83;21.05;;;;;;;3.80;nan;101559.16;5034661;28;20070;-69
2023/01/03 01:56:42;;;;;;;40.95;20.77;;;;;;;3.77;nan;101561.28;5029997;28;20039;-70
2023/01/03 01:59:10;;;;;;;35.25;20.45;;;;;;;3.78;nan;101561.13;5030866;28;20052;-69
2023/01/03 02:01:36;;;;;;;36.50;20.02;;;;;;;3.70;nan;101552.44;5038408;28;20035;-70
2023/01/03 02:04:06;;;;;;;40.25;20.42;;;;;;;3.73;nan;101552.94;5031026;28;20034;-69
2023/01/03 02:06:32;;;;;;;42.55;21.40;;;;;;;3.64;nan;101551.25;5038787;28;20041;-69
2023/01/03 02:08:58;;;;;;;37.20;20.70;;;;;;;3.65;nan;101554.66;5034997;28;20032;-70
2023/01/03 02:11:38;;;;;;;40.53;20.80;;;;;;;3.72;nan;101560.91;5038981;28;20032;-70
2023/01/03 02:14:49;;;;;;;34.85;19.75;;;;;;;3.77;nan;101563.88;5031836;28;20140;-70
2023/01/03 02:17:25;;;;;;;37.58;20.40;;;;;;;3.66;nan;101546.69;5032426;28;20033;-70
2023/01/03 02:20:10;;;;;;;34.33;20.05;;;;;;;3.76;nan;101563.06;5034512;28;20546;-70
2023/01/03 02:22:53;;;;;;;34.05;19.10;;;;;;;3.75;nan;101566.63;5049607;28;20115;-70
2023/01/03 02:26:00;;;;;;;33.13;18.85;;;;;;;3.70;nan;101562.84;5034428;28;20040;-70
2023/01/03 02:28:50;;;;;;;36.83;20.15;;;;;;;3.70;nan;101573.25;5030518;28;20044;-69
2023/01/03 02:31:26;;;;;;;35.05;19.08;;;;;;;3.69;nan;101567.25;5033215;28;20033;-69
2023/01/03 02:34:15;;;;;;;35.85;19.70;;;;;;;3.68;nan;101570.81;5033754;28;20028;-69
2023/01/03 02:37:00;;;;;;;32.10;18.27;;;;;;;3.60;nan;101563.75;5037359;28;20036;-69
2023/01/03 02:39:28;;;;;;;37.08;19.73;;;;;;;3.61;nan;101567.97;5033666;28;20522;-69
2023/01/03 02:45:08;;;;;;;33.40;19.08;;;;;;;3.51;nan;101554.22;5028829;28;20048;-69
2023/01/03 02:47:45;;;;;;;32.92;17.98;;;;;;;3.46;nan;101553.84;5046746;28;20399;-69
2023/01/03 02:50:12;;;;;;;33.47;18.73;;;;;;;3.48;nan;101564.94;5039279;28;20030;-69
2023/01/03 02:52:40;;;;;;;32.88;18.35;;;;;;;3.36;nan;101542.72;5035218;28;20489;-69
2023/01/03 02:55:19;;;;;;;35.75;19.15;;;;;;;3.39;nan;101558.84;5032769;28;20387;-69
2023/01/03 02:58:15;;;;;;;33.22;19.27;;;;;;;3.47;nan;101576.34;5034340;28;20025;-68
2023/01/03 03:00:47;;;;;;;34.90;19.35;;;;;;;3.44;nan;101568.00;5033077;28;20034;-69
2023/01/03 03:03:21;;;;;;;35.95;20.02;;;;;;;3.47;nan;101578.94;5039694;28;20043;-68
2023/01/03 03:06:11;;;;;;;33.90;19.25;;;;;;;3.47;nan;101572.88;5042547;28;20037;-67
2023/01/03 03:08:36;;;;;;;;;;;;;;;3.44;nan;101566.19;5045588;28;20017;-67
2023/01/03 03:13:54;;;;;;;36.30;19.65;;;;;;;3.36;nan;101572.16;5035336;28;20036;-67
2023/01/03 03:25:03;;;;;;;42.38;23.17;;;;;;;3.17;nan;101556.69;5036879;28;20521;-67
2023/01/03 03:30:18;;;;;;;45.60;23.67;;;;;;;3.19;nan;101554.75;5045404;28;20429;-67
2023/01/03 03:32:48;;;;;;;42.58;24.08;;;;;;;3.30;nan;101579.72;5037304;28;20112;-67
2023/01/03 03:35:19;;;;;;;40.65;23.88;;;;;;;3.29;nan;101581.53;5040017;28;20044;-67
2023/01/03 03:37:47;;;;;;;44.88;23.38;;;;;;;3.30;nan;101580.53;5035732;28;20051;-67
2023/01/03 03:46:01;;;;;;;43.83;25.05;;;;;;;3.19;nan;101584.19;5041387;28;20064;-67
2023/01/03 03:49:36;;;;;;;40.65;23.15;;;;;;;3.22;nan;101585.69;5038588;28;20061;-68
2023/01/03 03:51:24;;;;;;;40.92;22.77;;;;;;;3.16;nan;101581.91;5034949;28;20907;-68
2023/01/03 03:53:52;;;;;;;41.35;22.90;;;;;;;3.17;nan;101582.72;5042862;28;20461;-68
2023/01/03 03:56:24;;;;;;;43.38;23.13;;;;;;;3.08;nan;101562.75;5033277;28;20034;-67
2023/01/03 03:58:55;;;;;;;39.35;20.77;;;;;;;2.95;nan;101563.94;5036491;28;20116;-67
2023/01/03 04:01:23;;;;;;;38.25;21.67;;;;;;;2.88;nan;101549.88;5036689;28;20112;-68
2023/01/03 04:03:52;;;;;;;38.10;20.73;;;;;;;2.98;nan;101574.03;5034087;28;20443;-67
2023/01/03 04:06:30;;;;;;;31.30;19.10;;;;;;;3.02;nan;101576.34;5039895;28;20059;-68
2023/01/03 04:08:55;;;;;;;35.65;20.42;;;;;;;3.03;nan;101583.19;5034969;28;21095;-67
2023/01/03 04:11:21;;;;;;;36.20;19.92;;;;;;;3.02;nan;101574.59;5037606;28;20040;-67
2023/01/03 04:13:46;;;;;;;33.45;20.38;;;;;;;2.98;nan;101573.22;5035981;28;20047;-68
2023/01/03 04:16:11;;;;;;;36.45;20.17;;;;;;;2.96;nan;101581.16;5033933;28;20033;-67
2023/01/03 04:18:37;;;;;;;35.55;20.10;;;;;;;2.93;nan;101581.47;5041658;28;20087;-66
2023/01/03 04:21:02;;;;;;;35.65;20.65;;;;;;;2.77;nan;101561.28;5036678;28;20406;-67
2023/01/03 04:23:28;;;;;;;38.58;20.63;;;;;;;2.91;nan;101595.59;5033254;28;20100;-67
2023/01/03 04:25:53;;;;;;;37.22;21.83;;;;;;;2.79;nan;101583.75;5032487;28;20073;-67
2023/01/03 04:28:18;;;;;;;39.45;22.48;;;;;;;2.69;nan;101569.00;5045837;28;20033;-68
2023/01/03 04:30:45;;;;;;;38.17;21.40;;;;;;;2.86;nan;101601.22;5047148;28;20029;-67
2023/01/03 04:33:10;;;;;;;43.72;22.33;;;;;;;2.52;nan;101546.38;5038315;28;20037;-67
2023/01/03 04:35:36;;;;;;;39.60;21.67;;;;;;;2.81;nan;101590.44;5049215;28;20037;-67
2023/01/03 04:38:02;;;;;;;35.30;20.83;;;;;;;2.83;nan;101592.91;5033910;28;20484;-66
2023/01/03 04:40:28;;;;;;;40.15;22.25;;;;;;;2.62;nan;101567.13;5033249;28;20498;-67
2023/01/03 04:45:38;;;;;;;43.90;22.48;;;;;;;2.70;nan;101585.41;5042272;28;20059;-67
2023/01/03 04:48:03;;;;;;;44.47;22.90;;;;;;;2.69;nan;101589.00;5043490;28;20087;-66
2023/01/03 04:50:29;;;;;;;40.78;21.92;;;;;;;2.78;nan;101598.53;5037794;28;20025;-67
2023/01/03 04:52:55;;;;;;;42.22;22.20;;;;;;;2.67;nan;101576.13;5036387;28;20788;-67
2023/01/03 04:55:20;;;;;;;37.67;21.98;;;;;;;2.44;nan;101538.44;5039071;28;20140;-67
2023/01/03 04:57:45;;;;;;;39.15;20.80;;;;;;;2.70;nan;101586.22;5037976;28;20021;-67
2023/01/03 05:00:11;;;;;;;38.05;21.17;;;;;;;2.60;nan;101572.47;5031792;28;20021;-66
2023/01/03 05:02:37;;;;;;;42.78;22.70;;;;;;;2.62;nan;101586.13;5038434;28;20030;-66
2023/01/03 05:05:02;;;;;;;43.17;21.42;;;;;;;2.62;nan;101606.94;5041619;28;20483;-67
2023/01/03 05:07:28;;;;;;;43.00;23.42;;;;;;;2.62;nan;101598.34;5039022;28;20025;-67
2023/01/03 05:09:54;;;;;;;42.30;23.38;;;;;;;2.59;nan;101596.84;5039344;28;20111;-67
2023/01/03 05:12:19;;;;;;;40.67;23.90;;;;;;;2.49;nan;101591.69;5053841;28;20061;-67
2023/01/03 05:14:44;;;;;;;40.50;20.98;;;;;;;2.48;nan;101607.41;5038441;28;20037;-67
2023/01/03 05:17:10;;;;;;;44.90;22.80;;;;;;;2.33;nan;101592.25;5030441;28;20033;-67
2023/01/03 05:25:48;;;;;;;41.63;21.92;;;;;;;2.37;nan;101602.38;5054050;28;20116;-67
2023/01/03 05:27:49;;;;;;;44.00;22.50;;;;;;;2.34;nan;101617.28;5033435;28;20064;-67
2023/01/03 05:30:15;;;;;;;42.38;22.30;;;;;;;2.34;nan;101613.88;5038233;28;20029;-67
2023/01/03 05:32:40;;;;;;;43.42;22.25;;;;;;;2.31;nan;101614.16;5036995;28;20059;-67
2023/01/03 05:35:06;;;;;;;42.20;22.83;;;;;;;2.26;nan;101609.38;5037189;28;20041;-67
2023/01/03 05:37:31;;;;;;;39.53;20.88;;;;;;;2.32;nan;101626.19;5034900;28;20063;-68
2023/01/03 05:39:56;;;;;;;41.08;23.08;;;;;;;2.26;nan;101630.16;5030804;28;20036;-67
2023/01/03 05:42:22;;;;;;;40.83;23.20;;;;;;;2.21;nan;101613.38;5031824;28;20049;-66
2023/01/03 05:44:47;;;;;;;44.42;23.17;;;;;;;2.19;nan;101616.09;5032940;28;20063;-68
2023/01/03 05:47:12;;;;;;;43.75;22.80;;;;;;;1.85;nan;101563.78;5032061;28;20025;-68
2023/01/03 05:49:38;;;;;;;39.25;22.67;;;;;;;2.18;nan;101619.66;5035667;28;20055;-68
2023/01/03 05:52:03;;;;;;;43.20;22.33;;;;;;;2.17;nan;101628.41;5032395;28;20026;-68
2023/01/03 05:54:29;;;;;;;44.10;22.40;;;;;;;2.09;nan;101610.91;5031725;28;20030;-68
2023/01/03 05:56:54;;;;;;;47.67;23.85;;;;;;;2.18;nan;101626.63;5036167;28;20068;-67
2023/01/03 05:59:21;;;;;;;39.78;22.05;;;;;;;2.12;nan;101622.81;5034583;28;20470;-68
2023/01/03 06:01:47;;;;;;;45.63;21.98;;;;;;;2.21;nan;101632.38;5032056;28;20426;-68
2023/01/03 06:04:12;;;;;;;42.22;21.25;;;;;;;2.13;nan;101616.63;5036064;28;20051;-68
2023/01/03 06:06:37;;;;;;;38.65;20.67;;;;;;;2.17;nan;101623.22;5048597;28;20032;-67
2023/01/03 06:09:03;;;;;;;41.28;21.05;;;;;;;2.11;nan;101637.59;5034720;28;20029;-68
2023/01/03 06:11:28;;;;;;;41.97;21.95;;;;;;;2.06;nan;101633.75;5032889;28;20028;-68
2023/01/03 06:13:53;;;;;;;46.22;23.02;;;;;;;2.06;nan;101639.78;5036340;28;20124;-68
2023/01/03 06:19:06;;;;;;;43.78;21.85;;;;;;;1.98;nan;101654.41;5034305;28;20494;-68
2023/01/03 06:21:31;;;;;;;42.53;22.30;;;;;;;1.90;nan;101648.13;5033670;28;20029;-68
2023/01/03 06:23:57;;;;;;;44.55;21.02;;;;;;;1.86;nan;101651.94;5037267;28;20025;-68
2023/01/03 06:26:23;;;;;;;36.63;20.52;;;;;;;1.83;nan;101636.63;5034047;28;20072;-68
2023/01/03 06:28:49;;;;;;;38.00;20.23;;;;;;;1.86;nan;101651.94;5038136;28;20029;-68
2023/01/03 06:31:14;;;;;;;38.75;21.25;;;;;;;1.91;nan;101660.13;5030936;28;20068;-68
2023/01/03 06:33:40;;;;;;;40.13;20.70;;;;;;;1.91;nan;101657.53;5032823;28;20698;-68
2023/01/03 06:36:11;;;;;;;42.50;21.40;;;;;;;1.92;nan;101654.00;5037740;28;20025;-68
2023/01/03 06:38:37;;;;;;;39.45;21.67;;;;;;;1.88;nan;101660.41;5034421;28;20483;-68
2023/01/03 06:41:03;;;;;;;40.53;20.30;;;;;;;1.87;nan;101668.38;5029567;28;20033;-69
2023/01/03 06:43:28;;;;;;;40.13;22.58;;;;;;;1.89;nan;101676.81;5031516;28;20071;-68
2023/01/03 06:54:23;;;;;;;42.35;22.67;;;;;;;1.70;nan;101677.66;5038557;28;20129;-69
2023/01/03 06:56:52;;;;;;;48.40;23.00;;;;;;;1.73;nan;101679.97;5031195;28;20398;-69
2023/01/03 06:59:18;;;;;;;41.33;22.88;;;;;;;1.76;nan;101689.25;5033591;28;20072;-69
2023/01/03 07:01:45;;;;;;;45.13;23.67;;;;;;;1.77;nan;101686.50;5032664;28;20542;-69
2023/01/03 07:04:10;;;;;;;49.90;24.25;;;;;;;1.64;nan;101660.81;5036957;28;20490;-69
2023/01/03 07:06:36;;;;;;;54.33;26.08;;;;;;;1.70;nan;101675.88;5032726;28;20021;-69
2023/01/03 07:09:01;;;;;;;55.17;26.60;;;;;;;1.72;nan;101688.69;5034296;28;20373;-70
2023/01/03 07:11:27;;;;;;;57.40;27.75;;;;;;;1.80;nan;101699.25;5039852;28;20021;-70
2023/01/03 07:13:58;;;;;;;59.75;27.48;;;;;;;1.85;nan;101694.47;5040401;28;20533;-70
2023/01/03 07:16:33;;;;;;;58.25;28.55;;;;;;;1.80;nan;101690.66;5034367;28;20051;-71
2023/01/03 07:19:00;;;;;;;57.88;28.95;;;;;;;1.89;nan;101701.03;5035830;28;20606;-70
2023/01/03 07:21:27;;;;;;;59.50;29.02;;;;;;;1.88;nan;101704.56;5031911;28;20103;-69
2023/01/03 07:23:57;;;;;;;58.42;28.10;;;;;;;1.90;nan;101705.25;5064962;28;20435;-70
2023/01/03 07:26:25;;;;;;;;;;;;;;;1.94;nan;101702.38;5033506;28;20056;-69
2023/01/03 07:28:51;;;;;;;56.03;26.45;;;;;;;1.90;nan;101697.47;5037619;28;19924;-70
2023/01/03 07:31:17;;;;;;;60.53;30.73;;;;;;;1.94;nan;101694.59;5033991;28;20032;-69
2023/01/03 07:33:44;;;;;;;62.13;29.70;;;;;;;2.06;nan;101701.28;5039004;28;20108;-69
2023/01/03 07:36:11;;;;;;;56.53;27.83;;;;;;;2.08;nan;101702.81;5042479;28;20513;-69
2023/01/03 07:38:37;;;;;;;58.05;30.90;;;;;;;2.14;nan;101709.25;5036800;28;20056;-68
2023/01/03 07:41:03;;;;;;;65.63;32.88;;;;;;;2.20;nan;101713.88;5035401;28;20111;-68
2023/01/03 07:43:38;;;;;;;67.25;33.30;;;;;;;2.26;nan;101708.13;5034823;28;20060;-69
2023/01/03 07:46:25;;;;;;;64.63;34.10;;;;;;;2.33;nan;101714.44;5038642;28;20033;-67
2023/01/03 07:49:00;;;;;;;62.22;32.95;;;;;;;2.38;nan;101714.00;5036729;28;20029;-68
2023/01/03 07:51:25;;;;;;;61.17;31.98;;;;;;;2.25;nan;101680.53;5037828;28;20016;-67
2023/01/03 07:53:52;;;;;;;66.63;34.17;;;;;;;2.58;nan;101716.59;5034289;28;20098;-69
2023/01/03 07:56:18;;;;;;;67.65;33.88;;;;;;;2.68;nan;101726.03;5035942;28;20030;-67
2023/01/03 07:58:44;;;;;;;62.42;31.80;;;;;;;2.69;nan;101709.44;5043200;28;20024;-69
2023/01/03 08:01:16;;;;;;;61.97;32.13;;;;;;;2.86;nan;101720.91;5041397;28;20467;-72
2023/01/03 08:03:43;;;;;;;64.28;32.40;;;;;;;2.93;nan;101718.56;5058781;28;20083;-70
2023/01/03 08:06:10;;;;;;;67.38;34.97;;;;;;;3.01;nan;101717.84;5045069;28;20025;-69
2023/01/03 08:08:36;;;;;;;63.75;32.92;;;;;;;3.08;nan;101722.31;5042400;28;20033;-68
2023/01/03 08:13:46;;;;;;;87.68;46.00;;;;;;;3.27;nan;101731.84;5034351;28;20087;-70
2023/01/03 08:16:16;;;;;;;100.72;52.17;;;;;;;3.33;nan;101720.03;5035233;28;20033;-69
2023/01/03 08:18:42;;;;;;;1999.90;997.35;;;;;;;3.50;nan;101727.06;5032273;28;20080;-69
2023/01/03 08:21:10;;;;;;;1845.90;351.92;;;;;;;4.05;nan;101734.81;5039920;28;20029;-67
2023/01/03 08:23:37;;;;;;;165.18;82.63;;;;;;;4.31;nan;101728.00;5040977;28;20025;-69
2023/01/03 08:26:04;;;;;;;161.57;69.40;;;;;;;;;;5035167;28;20049;-69
2023/01/03 08:28:29;;;;;;;134.18;58.40;;;;;;;;;;5039075;28;20391;-68
2023/01/03 08:30:55;;;;;;;122.55;57.03;;;;;;;;;;5034671;28;20032;-71
2023/01/03 08:33:20;;;;;;;115.25;51.95;;;;;;;;;;5041170;28;20036;-69
2023/01/03 08:35:49;;;;;;;109.90;50.70;;;;;;;;;;5033668;28;20887;-70
2023/01/03 08:38:19;;;;;;;114.93;50.53;;;;;;;4.93;nan;101743.59;5035713;28;20025;-72
2023/01/03 08:40:45;;;;;;;103.90;49.58;;;;;;;5.03;nan;101749.53;5040245;28;20412;-74
2023/01/03 08:43:14;;;;;;;105.65;51.53;;;;;;;5.10;nan;101740.13;5042090;28;20557;-74
2023/01/03 08:45:39;;;;;;;110.45;50.63;;;;;;;5.23;nan;101735.28;5034285;28;20044;-76
2023/01/03 08:48:07;;;;;;;103.88;49.40;;;;;;;5.32;nan;101739.56;5042205;28;20014;-70
2023/01/03 08:50:32;;;;;;;100.68;48.05;;;;;;;;;;5031467;28;20076;-70
2023/01/03 08:52:58;;;;;;;94.82;46.05;;;;;;;;;;5036974;28;20026;-70
2023/01/03 08:55:24;;;;;;;85.40;44.10;;;;;;;;;;5034894;28;20031;-69
2023/01/03 08:57:49;;;;;;;80.95;42.35;;;;;;;5.89;nan;101741.53;5045106;28;20021;-69
2023/01/03 09:00:14;;;;;;;79.07;41.38;;;;;;;;;;5036273;28;20029;-70
2023/01/03 09:02:39;;;;;;;79.80;40.70;;;;;;;;;;5034354;28;20028;-70
2023/01/03 09:05:05;;;;;;;69.88;37.58;;;;;;;;;;5038357;28;20032;-68
2023/01/03 09:07:30;;;;;;;77.45;38.67;;;;;;;;;;5039876;28;20033;-68
2023/01/03 09:09:56;;;;;;;63.67;35.30;;;;;;;;;;5037422;28;20031;-70
2023/01/03 09:12:21;;;;;;;68.78;37.33;;;;;;;;;;5044734;28;20083;-70
2023/01/03 09:14:46;;;;;;;70.97;38.13;;;;;;;;;;5043535;28;20017;-70
2023/01/03 09:17:11;;;;;;;66.88;36.00;;;;;;;;;;5035099;28;20286;-70
2023/01/03 09:19:37;;;;;;;66.43;35.37;;;;;;;;;;5036532;28;20382;-73
2023/01/03 09:22:02;;;;;;;63.23;33.90;;;;;;;;;;5038627;28;20025;-73
2023/01/03 09:24:27;;;;;;;65.93;34.90;;;;;;;;;;5037612;28;20029;-74
2023/01/03 09:26:52;;;;;;;60.73;32.93;;;;;;;;;;5039004;28;20055;-74
2023/01/03 09:29:18;;;;;;;62.73;32.43;;;;;;;7.49;nan;101707.72;5033808;28;20369;-74
2023/01/03 09:31:43;;;;;;;59.10;31.30;;;;;;;7.54;nan;101687.06;5038624;28;20277;-73
2023/01/03 09:34:09;;;;;;;55.35;30.77;;;;;;;7.58;nan;101676.06;5040150;28;20531;-74
2023/01/03 09:36:37;;;;;;;56.97;30.83;;;;;;;7.89;nan;101710.09;5036036;28;20116;-74
2023/01/03 09:39:03;;;;;;;56.85;29.73;;;;;;;7.91;nan;101701.25;5039368;28;20036;-75
2023/01/03 09:41:28;;;;;;;56.83;31.65;;;;;;;7.99;nan;101695.94;5039174;28;20594;-75
2023/01/03 09:44:01;;;;;;;52.72;29.13;;;;;;;8.07;nan;101680.16;5033767;28;20077;-74
2023/01/03 09:46:28;;;;;;;53.85;29.52;;;;;;;8.31;nan;101708.81;5034323;28;20065;-74
2023/01/03 09:48:54;;;;;;;59.83;33.00;;;;;;;8.27;nan;101686.53;5036129;28;20036;-75
2023/01/03 10:05:51;;;;;;;47.22;27.58;;;;;;;8.91;nan;101682.63;5034607;28;20501;-75
2023/01/03 10:08:19;;;;;;;56.60;29.13;;;;;;;9.05;nan;101692.31;5035981;28;20037;-75
2023/01/03 10:11:08;;;;;;;53.60;29.60;;;;;;;9.13;nan;101688.78;5036577;28;20043;-74
2023/01/03 10:13:55;;;;;;;54.10;27.92;;;;;;;9.19;nan;101690.66;5038353;28;20572;-74
2023/01/03 10:17:14;;;;;;;49.58;29.20;;;;;;;9.24;nan;101683.06;5031706;28;20037;-74
2023/01/03 10:20:02;;;;;;;53.67;28.98;;;;;;;9.34;nan;101685.38;4985248;28;20030;-74
2023/01/03 10:22:29;;;;;;;47.80;28.20;;;;;;;9.41;nan;101683.66;4986217;28;20070;-74
2023/01/03 10:25:04;;;;;;;50.45;29.08;;;;;;;9.48;nan;101670.56;4987256;28;20042;-74
2023/01/03 10:27:33;;;;;;;53.10;28.42;;;;;;;9.46;nan;101662.06;4981126;28;20049;-76
2023/01/03 10:30:05;;;;;;;47.05;28.65;;;;;;;9.59;nan;101670.88;4975889;28;20394;-74
2023/01/03 10:32:36;;;;;;;52.95;30.40;;;;;;;9.70;nan;101674.03;4978565;28;20026;-74
2023/01/03 10:35:30;;;;;;;52.35;30.35;;;;;;;9.76;nan;101675.91;4983138;28;20473;-73
2023/01/03 10:37:56;;;;;;;47.75;28.60;;;;;;;9.76;nan;101660.13;4999901;28;20216;-74
2023/01/03 10:40:46;;;;;;;52.28;31.38;;;;;;;9.91;nan;101667.94;4982535;28;20034;-73
2023/01/03 10:43:24;;;;;;;52.88;29.08;;;;;;;9.98;nan;101666.19;4983772;28;20038;-68
2023/01/03 10:45:55;;;;;;;58.30;32.00;;;;;;;10.05;nan;101658.34;4982209;28;20459;-68
2023/01/03 10:48:32;;;;;;;49.88;29.92;;;;;;;10.12;nan;101657.38;4970380;28;20141;-70
2023/01/03 10:50:57;;;;;;;48.33;30.23;;;;;;;10.19;nan;101644.28;5025425;28;20041;-68
2023/01/03 10:53:23;;;;;;;48.72;28.98;;;;;;;10.30;nan;101643.78;5036915;28;20685;-69
2023/01/03 10:55:53;;;;;;;47.58;29.05;;;;;;;10.43;nan;101645.69;5030817;28;20013;-67
2023/01/03 10:58:25;;;;;;;51.90;29.45;;;;;;;10.49;nan;101641.50;5035782;28;20119;-69
2023/01/03 11:00:53;;;;;;;57.15;30.17;;;;;;;10.56;nan;101645.78;5036395;28;20060;-70
2023/01/03 11:03:22;;;;;;;53.35;31.48;;;;;;;10.71;nan;101647.47;5036914;28;20075;-70
2023/01/03 11:06:00;;;;;;;61.92;35.08;;;;;;;10.78;nan;101651.78;5037428;28;20489;-69
2023/01/03 11:08:45;;;;;;;62.70;31.90;;;;;;;10.84;nan;101637.78;5034427;28;20032;-70
2023/01/03 11:11:27;;;;;;;55.67;30.88;;;;;;;10.91;nan;101642.28;5037285;28;20119;-68
2023/01/03 11:14:17;;;;;;;60.30;33.40;;;;;;;10.98;nan;101645.78;5036862;28;20025;-69
2023/01/03 11:16:52;;;;;;;55.90;30.42;;;;;;;11.02;nan;101639.09;5039697;28;20017;-66
2023/01/03 11:19:18;;;;;;;53.58;32.03;;;;;;;11.08;nan;101638.31;5036978;28;20070;-70
2023/01/03 11:22:07;;;;;;;65.43;36.63;;;;;;;11.19;nan;101635.09;5040053;28;20033;-69
2023/01/03 11:24:35;;;;;;;56.33;33.38;;;;;;;11.25;nan;101631.69;5044385;28;20102;-68
2023/01/03 11:27:32;;;;;;;50.10;31.38;;;;;;;11.29;nan;101635.53;5041915;28;20049;-68
2023/01/03 11:30:13;;;;;;;54.08;33.22;;;;;;;11.33;nan;101629.88;4981701;28;20175;-68
2023/01/03 11:32:55;;;;;;;55.20;32.65;;;;;;;11.35;nan;101631.31;4982992;28;20046;-67
2023/01/03 11:35:33;;;;;;;62.60;36.45;;;;;;;11.41;nan;101621.75;4978800;28;20062;-67
2023/01/03 11:38:17;;;;;;;65.30;35.92;;;;;;;11.50;nan;101631.13;4981451;28;20112;-67
2023/01/03 11:41:19;;;;;;;69.85;37.22;;;;;;;11.51;nan;101624.81;4986053;28;20065;-67
2023/01/03 11:44:15;;;;;;;54.05;33.00;;;;;;;11.60;nan;101626.25;4962788;28;20035;-67
2023/01/03 11:47:04;;;;;;;61.22;34.25;;;;;;;11.66;nan;101630.75;4980302;28;20034;-71
2023/01/03 11:49:50;;;;;;;56.03;34.03;;;;;;;11.69;nan;101625.06;4984561;28;20033;-67
2023/01/03 11:52:43;;;;;;;56.08;35.15;;;;;;;11.72;nan;101629.13;4975331;28;20073;-71
2023/01/03 11:55:33;;;;;;;59.20;36.55;;;;;;;11.74;nan;101616.53;4988100;28;20026;-70
2023/01/03 11:58:38;;;;;;;55.80;34.03;;;;;;;11.77;nan;101615.31;4968861;28;20452;-70
2023/01/03 12:01:09;;;;;;;57.35;35.35;;;;;;;11.82;nan;101618.16;4979820;28;20516;-71
2023/01/03 12:03:43;;;;;;;59.63;35.50;;;;;;;11.86;nan;101616.75;4984121;28;20625;-70
2023/01/03 12:06:36;;;;;;;62.55;37.05;;;;;;;11.92;nan;101608.03;5023348;28;20045;-66
2023/01/03 12:09:16;;;;;;;51.33;31.52;;;;;;;11.95;nan;101609.44;5007017;28;20055;-67
2023/01/03 12:12:09;;;;;;;49.47;29.60;;;;;;;11.93;nan;101609.66;5043410;28;20415;-67
2023/01/03 12:14:38;;;;;;;46.95;28.88;;;;;;;11.90;nan;101604.81;5033343;28;20037;-67
2023/01/03 12:17:12;;;;;;;43.80;27.57;;;;;;;11.93;nan;101609.66;5034954;28;20041;-66
2023/01/03 12:19:59;;;;;;;51.42;30.10;;;;;;;11.95;nan;101612.06;5032048;28;20092;-68
2023/01/03 12:22:35;;;;;;;45.53;29.02;;;;;;;11.94;nan;101598.06;5047059;28;20032;-68
2023/01/03 12:25:17;;;;;;;44.05;28.02;;;;;;;11.95;nan;101593.59;5047825;28;20024;-68
2023/01/03 12:27:55;;;;;;;48.38;30.50;;;;;;;12.05;nan;101600.09;5033191;28;20162;-67
2023/01/03 12:30:23;;;;;;;52.40;32.75;;;;;;;12.06;nan;101596.44;5038207;28;20035;-69
2023/01/03 12:33:04;;;;;;;54.58;32.70;;;;;;;12.00;nan;101589.34;5034017;28;20022;-67
2023/01/03 12:35:50;;;;;;;58.55;34.55;;;;;;;12.07;nan;101589.34;5035070;28;20387;-67
2023/01/03 12:38:21;;;;;;;59.63;36.00;;;;;;;12.06;nan;101585.88;5040485;28;20033;-68
2023/01/03 12:40:57;;;;;;;57.35;35.80;;;;;;;11.98;nan;101570.25;5040559;28;20383;-67
2023/01/03 12:43:28;;;;;;;47.15;28.52;;;;;;;12.12;nan;101592.19;5038970;28;20038;-68
2023/01/03 12:46:03;;;;;;;44.83;28.85;;;;;;;12.12;nan;101595.63;5041750;28;20020;-67
2023/01/03 12:48:57;;;;;;;42.78;27.40;;;;;;;12.09;nan;101589.94;5039157;28;20022;-67
2023/01/03 12:51:23;;;;;;;43.15;26.30;;;;;;;12.09;nan;101600.50;5053236;28;20072;-67
2023/01/03 12:54:11;;;;;;;48.58;29.30;;;;;;;12.08;nan;101591.75;5041350;28;20405;-67
2023/01/03 12:56:42;;;;;;;45.70;29.13;;;;;;;12.09;nan;101595.22;5041149;28;20025;-67
2023/01/03 12:59:35;;;;;;;50.25;29.65;;;;;;;12.10;nan;101591.56;5037435;28;20029;-68
2023/01/03 13:02:38;;;;;;;40.10;26.42;;;;;;;12.12;nan;101597.47;5048496;28;20078;-67